sensor_id;sensor_type;location;lat;lon;timestamp;P1;durP1;ratioP1;P2;durP2;ratioP2
44197;SDS011;30157;55.512;37.764;2023-11-21T00:02:04;11.60;;;5.75;;
44197;SDS011;30157;55.512;37.764;2023-11-21T00:04:30;10.00;;;5.20;;
44197;SDS011;30157;55.512;37.764;2023-11-21T00:06:56;10.43;;;5.93;;
44197;SDS011;30157;55.512;37.764;2023-11-21T00:09:21;11.38;;;5.75;;
44197;SDS011;30157;55.512;37.764;2023-11-21T00:11:47;12.10;;;5.68;;
44197;SDS011;30157;55.512;37.764;2023-11-21T00:14:13;9.73;;;5.53;;
44197;SDS011;30157;55.512;37.764;2023-11-21T00:16:41;10.48;;;4.60;;
44197;SDS011;30157;55.512;37.764;2023-11-21T00:19:07;9.45;;;5.07;;
44197;SDS011;30157;55.512;37.764;2023-11-21T00:21:32;11.07;;;5.57;;
44197;SDS011;30157;55.512;37.764;2023-11-21T00:23:58;10.90;;;5.68;;
44197;SDS011;30157;55.512;37.764;2023-11-21T00:26:24;9.77;;;5.05;;
44197;SDS011;30157;55.512;37.764;2023-11-21T00:29:00;9.35;;;5.53;;
44197;SDS011;30157;55.512;37.764;2023-11-21T00:31:25;10.23;;;5.70;;
44197;SDS011;30157;55.512;37.764;2023-11-21T00:33:51;11.35;;;5.53;;
44197;SDS011;30157;55.512;37.764;2023-11-21T00:36:17;9.88;;;4.95;;
44197;SDS011;30157;55.512;37.764;2023-11-21T00:38:43;8.38;;;4.78;;
44197;SDS011;30157;55.512;37.764;2023-11-21T00:41:09;14.60;;;6.68;;
44197;SDS011;30157;55.512;37.764;2023-11-21T00:43:35;19.83;;;6.40;;
44197;SDS011;30157;55.512;37.764;2023-11-21T00:46:03;14.85;;;6.88;;
44197;SDS011;30157;55.512;37.764;2023-11-21T00:48:30;11.88;;;6.47;;
44197;SDS011;30157;55.512;37.764;2023-11-21T00:50:56;10.68;;;5.07;;
44197;SDS011;30157;55.512;37.764;2023-11-21T00:53:22;11.20;;;5.32;;
44197;SDS011;30157;55.512;37.764;2023-11-21T00:55:47;9.38;;;4.72;;
44197;SDS011;30157;55.512;37.764;2023-11-21T00:58:13;10.60;;;5.55;;
44197;SDS011;30157;55.512;37.764;2023-11-21T01:00:40;12.05;;;5.90;;
44197;SDS011;30157;55.512;37.764;2023-11-21T01:03:06;10.57;;;5.13;;
44197;SDS011;30157;55.512;37.764;2023-11-21T01:05:34;11.57;;;6.15;;
44197;SDS011;30157;55.512;37.764;2023-11-21T01:08:00;10.25;;;5.30;;
44197;SDS011;30157;55.512;37.764;2023-11-21T01:10:25;10.27;;;5.85;;
44197;SDS011;30157;55.512;37.764;2023-11-21T01:12:51;16.52;;;6.95;;
44197;SDS011;30157;55.512;37.764;2023-11-21T01:15:17;16.38;;;6.60;;
44197;SDS011;30157;55.512;37.764;2023-11-21T01:17:43;10.93;;;5.68;;
44197;SDS011;30157;55.512;37.764;2023-11-21T01:20:08;12.02;;;6.07;;
44197;SDS011;30157;55.512;37.764;2023-11-21T01:22:39;9.48;;;5.60;;
44197;SDS011;30157;55.512;37.764;2023-11-21T01:25:07;8.07;;;4.75;;
44197;SDS011;30157;55.512;37.764;2023-11-21T01:27:33;8.70;;;3.83;;
44197;SDS011;30157;55.512;37.764;2023-11-21T01:30:00;11.45;;;5.57;;
44197;SDS011;30157;55.512;37.764;2023-11-21T01:32:30;12.52;;;5.47;;
44197;SDS011;30157;55.512;37.764;2023-11-21T01:34:56;7.95;;;4.38;;
44197;SDS011;30157;55.512;37.764;2023-11-21T01:37:22;10.10;;;4.55;;
44197;SDS011;30157;55.512;37.764;2023-11-21T01:39:48;8.73;;;4.78;;
44197;SDS011;30157;55.512;37.764;2023-11-21T01:42:14;12.85;;;5.45;;
44197;SDS011;30157;55.512;37.764;2023-11-21T01:44:40;9.90;;;4.88;;
44197;SDS011;30157;55.512;37.764;2023-11-21T01:47:07;13.85;;;5.22;;
44197;SDS011;30157;55.512;37.764;2023-11-21T01:49:35;9.02;;;4.95;;
44197;SDS011;30157;55.512;37.764;2023-11-21T01:52:01;7.90;;;4.40;;
44197;SDS011;30157;55.512;37.764;2023-11-21T01:54:29;8.93;;;4.50;;
44197;SDS011;30157;55.512;37.764;2023-11-21T01:56:57;10.02;;;4.28;;
44197;SDS011;30157;55.512;37.764;2023-11-21T01:59:30;6.38;;;3.78;;
44197;SDS011;30157;55.512;37.764;2023-11-21T02:02:00;9.27;;;4.05;;
44197;SDS011;30157;55.512;37.764;2023-11-21T02:04:25;8.52;;;4.38;;
44197;SDS011;30157;55.512;37.764;2023-11-21T02:06:52;6.88;;;3.72;;
44197;SDS011;30157;55.512;37.764;2023-11-21T02:09:29;8.10;;;4.90;;
44197;SDS011;30157;55.512;37.764;2023-11-21T02:11:56;7.28;;;3.97;;
44197;SDS011;30157;55.512;37.764;2023-11-21T02:14:27;9.85;;;4.65;;
44197;SDS011;30157;55.512;37.764;2023-11-21T02:16:55;8.75;;;4.28;;
44197;SDS011;30157;55.512;37.764;2023-11-21T02:19:23;7.75;;;4.35;;
44197;SDS011;30157;55.512;37.764;2023-11-21T02:21:52;8.82;;;4.43;;
44197;SDS011;30157;55.512;37.764;2023-11-21T02:24:19;9.82;;;5.32;;
44197;SDS011;30157;55.512;37.764;2023-11-21T02:26:48;11.00;;;4.20;;
44197;SDS011;30157;55.512;37.764;2023-11-21T02:29:20;12.40;;;4.93;;
44197;SDS011;30157;55.512;37.764;2023-11-21T02:31:53;8.00;;;4.68;;
44197;SDS011;30157;55.512;37.764;2023-11-21T02:34:21;8.52;;;4.35;;
44197;SDS011;30157;55.512;37.764;2023-11-21T02:36:48;11.73;;;4.22;;
44197;SDS011;30157;55.512;37.764;2023-11-21T02:39:17;8.05;;;4.97;;
44197;SDS011;30157;55.512;37.764;2023-11-21T02:41:43;7.38;;;4.28;;
44197;SDS011;30157;55.512;37.764;2023-11-21T02:44:10;7.90;;;3.42;;
44197;SDS011;30157;55.512;37.764;2023-11-21T02:46:36;6.82;;;3.70;;
44197;SDS011;30157;55.512;37.764;2023-11-21T02:49:03;6.28;;;3.40;;
44197;SDS011;30157;55.512;37.764;2023-11-21T02:51:31;7.15;;;4.10;;
44197;SDS011;30157;55.512;37.764;2023-11-21T02:53:58;9.80;;;4.90;;
44197;SDS011;30157;55.512;37.764;2023-11-21T02:56:28;11.70;;;4.70;;
44197;SDS011;30157;55.512;37.764;2023-11-21T02:58:59;9.95;;;4.80;;
44197;SDS011;30157;55.512;37.764;2023-11-21T03:01:25;13.38;;;5.05;;
44197;SDS011;30157;55.512;37.764;2023-11-21T03:03:51;11.68;;;5.40;;
44197;SDS011;30157;55.512;37.764;2023-11-21T03:06:18;9.13;;;5.20;;
44197;SDS011;30157;55.512;37.764;2023-11-21T03:08:44;9.20;;;4.88;;
44197;SDS011;30157;55.512;37.764;2023-11-21T03:11:10;10.63;;;4.03;;
44197;SDS011;30157;55.512;37.764;2023-11-21T03:13:36;12.45;;;5.00;;
44197;SDS011;30157;55.512;37.764;2023-11-21T03:16:01;7.32;;;4.05;;
44197;SDS011;30157;55.512;37.764;2023-11-21T03:18:27;7.32;;;4.30;;
44197;SDS011;30157;55.512;37.764;2023-11-21T03:20:54;13.75;;;5.75;;
44197;SDS011;30157;55.512;37.764;2023-11-21T03:23:20;9.43;;;5.15;;
44197;SDS011;30157;55.512;37.764;2023-11-21T03:25:46;9.10;;;4.47;;
44197;SDS011;30157;55.512;37.764;2023-11-21T03:28:11;9.07;;;4.38;;
44197;SDS011;30157;55.512;37.764;2023-11-21T03:30:37;7.55;;;3.72;;
44197;SDS011;30157;55.512;37.764;2023-11-21T03:33:03;6.22;;;4.10;;
44197;SDS011;30157;55.512;37.764;2023-11-21T03:35:29;6.53;;;3.58;;
44197;SDS011;30157;55.512;37.764;2023-11-21T03:37:54;7.35;;;4.00;;
44197;SDS011;30157;55.512;37.764;2023-11-21T03:40:21;6.72;;;3.53;;
44197;SDS011;30157;55.512;37.764;2023-11-21T03:42:47;7.07;;;4.13;;
44197;SDS011;30157;55.512;37.764;2023-11-21T03:45:13;6.50;;;3.38;;
44197;SDS011;30157;55.512;37.764;2023-11-21T03:47:43;12.65;;;3.60;;
44197;SDS011;30157;55.512;37.764;2023-11-21T03:50:09;6.72;;;3.42;;
44197;SDS011;30157;55.512;37.764;2023-11-21T03:52:35;7.57;;;3.45;;
44197;SDS011;30157;55.512;37.764;2023-11-21T03:55:03;5.70;;;2.90;;
44197;SDS011;30157;55.512;37.764;2023-11-21T03:57:29;11.50;;;4.82;;
44197;SDS011;30157;55.512;37.764;2023-11-21T03:59:55;6.78;;;3.67;;
44197;SDS011;30157;55.512;37.764;2023-11-21T04:02:20;6.80;;;3.67;;
44197;SDS011;30157;55.512;37.764;2023-11-21T04:04:46;5.25;;;3.17;;
44197;SDS011;30157;55.512;37.764;2023-11-21T04:07:12;6.97;;;4.07;;
44197;SDS011;30157;55.512;37.764;2023-11-21T04:09:39;8.60;;;4.13;;
44197;SDS011;30157;55.512;37.764;2023-11-21T04:12:07;6.82;;;3.70;;
44197;SDS011;30157;55.512;37.764;2023-11-21T04:14:34;4.88;;;2.53;;
44197;SDS011;30157;55.512;37.764;2023-11-21T04:17:00;8.48;;;4.10;;
44197;SDS011;30157;55.512;37.764;2023-11-21T04:19:26;7.45;;;4.22;;
44197;SDS011;30157;55.512;37.764;2023-11-21T04:21:52;6.43;;;3.13;;
44197;SDS011;30157;55.512;37.764;2023-11-21T04:24:18;8.93;;;3.45;;
44197;SDS011;30157;55.512;37.764;2023-11-21T04:26:44;9.32;;;3.92;;
44197;SDS011;30157;55.512;37.764;2023-11-21T04:29:10;7.90;;;3.58;;
44197;SDS011;30157;55.512;37.764;2023-11-21T04:31:35;9.55;;;3.95;;
44197;SDS011;30157;55.512;37.764;2023-11-21T04:34:01;7.68;;;3.38;;
44197;SDS011;30157;55.512;37.764;2023-11-21T04:36:29;7.75;;;3.45;;
44197;SDS011;30157;55.512;37.764;2023-11-21T04:38:56;5.95;;;3.33;;
44197;SDS011;30157;55.512;37.764;2023-11-21T04:41:22;8.30;;;3.90;;
44197;SDS011;30157;55.512;37.764;2023-11-21T04:43:48;6.47;;;3.75;;
44197;SDS011;30157;55.512;37.764;2023-11-21T04:46:14;7.90;;;3.60;;
44197;SDS011;30157;55.512;37.764;2023-11-21T04:48:40;9.38;;;3.75;;
44197;SDS011;30157;55.512;37.764;2023-11-21T04:51:06;4.88;;;2.63;;
44197;SDS011;30157;55.512;37.764;2023-11-21T04:53:32;7.53;;;3.67;;
44197;SDS011;30157;55.512;37.764;2023-11-21T04:55:57;6.95;;;3.92;;
44197;SDS011;30157;55.512;37.764;2023-11-21T04:58:24;6.82;;;3.75;;
44197;SDS011;30157;55.512;37.764;2023-11-21T05:00:49;9.77;;;3.97;;
44197;SDS011;30157;55.512;37.764;2023-11-21T05:03:15;6.65;;;3.70;;
44197;SDS011;30157;55.512;37.764;2023-11-21T05:05:41;4.38;;;3.08;;
44197;SDS011;30157;55.512;37.764;2023-11-21T05:08:07;8.70;;;4.20;;
44197;SDS011;30157;55.512;37.764;2023-11-21T05:10:33;8.82;;;4.25;;
44197;SDS011;30157;55.512;37.764;2023-11-21T05:12:59;9.55;;;4.00;;
44197;SDS011;30157;55.512;37.764;2023-11-21T05:15:25;6.25;;;3.15;;
44197;SDS011;30157;55.512;37.764;2023-11-21T05:17:53;7.97;;;4.05;;
44197;SDS011;30157;55.512;37.764;2023-11-21T05:20:19;7.53;;;3.60;;
44197;SDS011;30157;55.512;37.764;2023-11-21T05:22:49;6.55;;;3.80;;
44197;SDS011;30157;55.512;37.764;2023-11-21T05:25:16;9.70;;;4.70;;
44197;SDS011;30157;55.512;37.764;2023-11-21T05:27:48;6.25;;;2.88;;
44197;SDS011;30157;55.512;37.764;2023-11-21T05:30:13;7.35;;;3.80;;
44197;SDS011;30157;55.512;37.764;2023-11-21T05:32:40;8.88;;;3.80;;
44197;SDS011;30157;55.512;37.764;2023-11-21T05:35:10;7.38;;;3.85;;
44197;SDS011;30157;55.512;37.764;2023-11-21T05:37:41;10.27;;;4.32;;
44197;SDS011;30157;55.512;37.764;2023-11-21T05:40:07;9.15;;;3.67;;
44197;SDS011;30157;55.512;37.764;2023-11-21T05:42:34;7.30;;;4.47;;
44197;SDS011;30157;55.512;37.764;2023-11-21T05:45:01;11.63;;;4.90;;
44197;SDS011;30157;55.512;37.764;2023-11-21T05:47:46;10.35;;;5.80;;
44197;SDS011;30157;55.512;37.764;2023-11-21T05:50:13;10.93;;;4.95;;
44197;SDS011;30157;55.512;37.764;2023-11-21T05:52:41;7.57;;;4.40;;
44197;SDS011;30157;55.512;37.764;2023-11-21T05:55:09;8.85;;;4.85;;
44197;SDS011;30157;55.512;37.764;2023-11-21T05:57:35;15.35;;;6.57;;
44197;SDS011;30157;55.512;37.764;2023-11-21T06:00:08;11.43;;;4.93;;
44197;SDS011;30157;55.512;37.764;2023-11-21T06:02:37;13.82;;;5.93;;
44197;SDS011;30157;55.512;37.764;2023-11-21T06:05:06;8.82;;;5.05;;
44197;SDS011;30157;55.512;37.764;2023-11-21T06:07:32;8.48;;;5.03;;
44197;SDS011;30157;55.512;37.764;2023-11-21T06:09:59;11.35;;;5.88;;
44197;SDS011;30157;55.512;37.764;2023-11-21T06:12:24;7.63;;;4.22;;
44197;SDS011;30157;55.512;37.764;2023-11-21T06:14:50;17.90;;;7.75;;
44197;SDS011;30157;55.512;37.764;2023-11-21T06:17:16;10.82;;;4.90;;
44197;SDS011;30157;55.512;37.764;2023-11-21T06:19:43;9.40;;;4.30;;
44197;SDS011;30157;55.512;37.764;2023-11-21T06:22:11;9.93;;;5.10;;
44197;SDS011;30157;55.512;37.764;2023-11-21T06:24:37;16.15;;;6.25;;
44197;SDS011;30157;55.512;37.764;2023-11-21T06:27:03;12.55;;;6.18;;
44197;SDS011;30157;55.512;37.764;2023-11-21T06:29:30;11.50;;;4.68;;
44197;SDS011;30157;55.512;37.764;2023-11-21T06:31:57;12.10;;;6.05;;
44197;SDS011;30157;55.512;37.764;2023-11-21T06:34:23;11.90;;;4.78;;
44197;SDS011;30157;55.512;37.764;2023-11-21T06:36:49;16.10;;;8.45;;
44197;SDS011;30157;55.512;37.764;2023-11-21T06:39:15;14.50;;;6.88;;
44197;SDS011;30157;55.512;37.764;2023-11-21T06:41:42;11.00;;;5.25;;
44197;SDS011;30157;55.512;37.764;2023-11-21T06:44:08;18.33;;;6.00;;
44197;SDS011;30157;55.512;37.764;2023-11-21T06:46:34;21.30;;;8.55;;
44197;SDS011;30157;55.512;37.764;2023-11-21T06:49:00;21.02;;;8.98;;
44197;SDS011;30157;55.512;37.764;2023-11-21T06:51:25;11.75;;;6.00;;
44197;SDS011;30157;55.512;37.764;2023-11-21T06:53:51;11.48;;;5.65;;
44197;SDS011;30157;55.512;37.764;2023-11-21T06:56:17;17.00;;;5.45;;
44197;SDS011;30157;55.512;37.764;2023-11-21T06:58:44;12.10;;;5.53;;
44197;SDS011;30157;55.512;37.764;2023-11-21T07:01:11;12.10;;;5.38;;
44197;SDS011;30157;55.512;37.764;2023-11-21T07:03:40;13.23;;;5.35;;
44197;SDS011;30157;55.512;37.764;2023-11-21T07:06:07;14.15;;;5.40;;
44197;SDS011;30157;55.512;37.764;2023-11-21T07:08:33;12.20;;;6.43;;
44197;SDS011;30157;55.512;37.764;2023-11-21T07:10:59;16.85;;;6.47;;
44197;SDS011;30157;55.512;37.764;2023-11-21T07:13:24;10.77;;;5.05;;
44197;SDS011;30157;55.512;37.764;2023-11-21T07:15:51;8.95;;;5.30;;
44197;SDS011;30157;55.512;37.764;2023-11-21T07:18:17;7.43;;;4.35;;
44197;SDS011;30157;55.512;37.764;2023-11-21T07:20:43;14.18;;;4.60;;
44197;SDS011;30157;55.512;37.764;2023-11-21T07:23:09;10.60;;;6.05;;
44197;SDS011;30157;55.512;37.764;2023-11-21T07:25:35;16.65;;;5.35;;
44197;SDS011;30157;55.512;37.764;2023-11-21T07:28:01;11.65;;;5.57;;
44197;SDS011;30157;55.512;37.764;2023-11-21T07:30:27;7.53;;;4.32;;
44197;SDS011;30157;55.512;37.764;2023-11-21T07:32:53;11.50;;;4.65;;
44197;SDS011;30157;55.512;37.764;2023-11-21T07:35:19;7.63;;;4.65;;
44197;SDS011;30157;55.512;37.764;2023-11-21T07:37:45;10.35;;;4.65;;
44197;SDS011;30157;55.512;37.764;2023-11-21T07:40:12;13.63;;;6.80;;
44197;SDS011;30157;55.512;37.764;2023-11-21T07:42:39;8.82;;;4.38;;
44197;SDS011;30157;55.512;37.764;2023-11-21T07:45:05;8.38;;;4.18;;
44197;SDS011;30157;55.512;37.764;2023-11-21T07:47:32;9.50;;;5.50;;
44197;SDS011;30157;55.512;37.764;2023-11-21T07:50:03;12.20;;;6.25;;
44197;SDS011;30157;55.512;37.764;2023-11-21T07:52:31;15.35;;;7.47;;
44197;SDS011;30157;55.512;37.764;2023-11-21T07:54:57;12.52;;;6.70;;
44197;SDS011;30157;55.512;37.764;2023-11-21T07:57:23;14.00;;;7.38;;
44197;SDS011;30157;55.512;37.764;2023-11-21T07:59:49;12.40;;;6.10;;
44197;SDS011;30157;55.512;37.764;2023-11-21T08:02:15;12.90;;;7.40;;
44197;SDS011;30157;55.512;37.764;2023-11-21T08:04:42;9.52;;;5.63;;
44197;SDS011;30157;55.512;37.764;2023-11-21T08:07:08;13.98;;;6.85;;
44197;SDS011;30157;55.512;37.764;2023-11-21T08:09:35;11.98;;;5.63;;
44197;SDS011;30157;55.512;37.764;2023-11-21T08:12:00;14.27;;;5.22;;
44197;SDS011;30157;55.512;37.764;2023-11-21T08:14:28;10.65;;;5.32;;
44197;SDS011;30157;55.512;37.764;2023-11-21T08:16:53;11.85;;;6.90;;
44197;SDS011;30157;55.512;37.764;2023-11-21T08:19:23;10.00;;;4.93;;
44197;SDS011;30157;55.512;37.764;2023-11-21T08:21:50;8.68;;;5.07;;
44197;SDS011;30157;55.512;37.764;2023-11-21T08:24:20;9.77;;;4.78;;
44197;SDS011;30157;55.512;37.764;2023-11-21T08:26:47;7.78;;;4.45;;
44197;SDS011;30157;55.512;37.764;2023-11-21T08:29:13;6.82;;;4.07;;
44197;SDS011;30157;55.512;37.764;2023-11-21T08:31:39;8.10;;;4.50;;
44197;SDS011;30157;55.512;37.764;2023-11-21T08:34:06;9.48;;;5.22;;
44197;SDS011;30157;55.512;37.764;2023-11-21T08:36:32;10.15;;;4.93;;
44197;SDS011;30157;55.512;37.764;2023-11-21T08:38:57;8.48;;;4.88;;
44197;SDS011;30157;55.512;37.764;2023-11-21T08:41:23;8.05;;;4.63;;
44197;SDS011;30157;55.512;37.764;2023-11-21T08:43:52;8.70;;;4.38;;
44197;SDS011;30157;55.512;37.764;2023-11-21T08:46:19;8.23;;;4.88;;
44197;SDS011;30157;55.512;37.764;2023-11-21T08:48:45;8.25;;;4.53;;
44197;SDS011;30157;55.512;37.764;2023-11-21T08:51:11;9.35;;;4.78;;
44197;SDS011;30157;55.512;37.764;2023-11-21T08:53:40;9.55;;;4.85;;
44197;SDS011;30157;55.512;37.764;2023-11-21T08:56:06;6.85;;;4.57;;
44197;SDS011;30157;55.512;37.764;2023-11-21T08:58:32;8.23;;;5.15;;
44197;SDS011;30157;55.512;37.764;2023-11-21T09:00:58;7.53;;;4.40;;
44197;SDS011;30157;55.512;37.764;2023-11-21T09:03:24;12.85;;;5.82;;
44197;SDS011;30157;55.512;37.764;2023-11-21T09:05:50;9.55;;;5.65;;
44197;SDS011;30157;55.512;37.764;2023-11-21T09:08:16;9.13;;;4.82;;
44197;SDS011;30157;55.512;37.764;2023-11-21T09:10:42;9.80;;;4.32;;
44197;SDS011;30157;55.512;37.764;2023-11-21T09:13:10;10.90;;;4.90;;
44197;SDS011;30157;55.512;37.764;2023-11-21T09:15:36;11.95;;;4.90;;
44197;SDS011;30157;55.512;37.764;2023-11-21T09:18:02;11.27;;;5.60;;
44197;SDS011;30157;55.512;37.764;2023-11-21T09:20:28;7.70;;;4.85;;
44197;SDS011;30157;55.512;37.764;2023-11-21T09:22:54;8.60;;;4.13;;
44197;SDS011;30157;55.512;37.764;2023-11-21T09:25:20;9.88;;;5.00;;
44197;SDS011;30157;55.512;37.764;2023-11-21T09:27:46;11.75;;;6.07;;
44197;SDS011;30157;55.512;37.764;2023-11-21T09:30:12;14.50;;;4.82;;
44197;SDS011;30157;55.512;37.764;2023-11-21T09:32:40;7.82;;;4.00;;
44197;SDS011;30157;55.512;37.764;2023-11-21T09:35:06;10.20;;;5.30;;
44197;SDS011;30157;55.512;37.764;2023-11-21T09:37:33;11.93;;;5.43;;
44197;SDS011;30157;55.512;37.764;2023-11-21T09:40:03;9.65;;;4.80;;
44197;SDS011;30157;55.512;37.764;2023-11-21T09:42:38;9.10;;;4.18;;
44197;SDS011;30157;55.512;37.764;2023-11-21T09:45:28;6.10;;;4.18;;
44197;SDS011;30157;55.512;37.764;2023-11-21T09:47:54;8.10;;;4.47;;
44197;SDS011;30157;55.512;37.764;2023-11-21T09:50:21;10.65;;;5.65;;
44197;SDS011;30157;55.512;37.764;2023-11-21T09:52:55;11.35;;;6.20;;
44197;SDS011;30157;55.512;37.764;2023-11-21T09:55:27;13.45;;;7.95;;
44197;SDS011;30157;55.512;37.764;2023-11-21T09:58:01;9.55;;;3.88;;
44197;SDS011;30157;55.512;37.764;2023-11-21T10:00:28;11.05;;;3.85;;
44197;SDS011;30157;55.512;37.764;2023-11-21T10:02:58;9.70;;;5.13;;
44197;SDS011;30157;55.512;37.764;2023-11-21T10:05:24;7.57;;;4.72;;
44197;SDS011;30157;55.512;37.764;2023-11-21T10:07:51;6.43;;;3.40;;
44197;SDS011;30157;55.512;37.764;2023-11-21T10:10:19;9.63;;;5.03;;
44197;SDS011;30157;55.512;37.764;2023-11-21T10:12:50;12.32;;;6.22;;
44197;SDS011;30157;55.512;37.764;2023-11-21T10:15:23;8.80;;;4.38;;
44197;SDS011;30157;55.512;37.764;2023-11-21T10:17:52;10.60;;;5.60;;
44197;SDS011;30157;55.512;37.764;2023-11-21T10:20:20;10.13;;;5.13;;
44197;SDS011;30157;55.512;37.764;2023-11-21T10:22:46;8.25;;;4.95;;
44197;SDS011;30157;55.512;37.764;2023-11-21T10:25:12;9.90;;;5.75;;
44197;SDS011;30157;55.512;37.764;2023-11-21T10:27:42;15.13;;;8.73;;
44197;SDS011;30157;55.512;37.764;2023-11-21T10:30:09;20.85;;;10.40;;
44197;SDS011;30157;55.512;37.764;2023-11-21T10:32:38;16.33;;;7.75;;
44197;SDS011;30157;55.512;37.764;2023-11-21T10:35:06;13.90;;;7.10;;
44197;SDS011;30157;55.512;37.764;2023-11-21T10:37:38;13.38;;;6.90;;
44197;SDS011;30157;55.512;37.764;2023-11-21T10:40:10;15.73;;;6.82;;
44197;SDS011;30157;55.512;37.764;2023-11-21T10:42:38;13.45;;;6.80;;
44197;SDS011;30157;55.512;37.764;2023-11-21T10:45:05;13.95;;;7.38;;
44197;SDS011;30157;55.512;37.764;2023-11-21T10:47:40;11.85;;;7.22;;
44197;SDS011;30157;55.512;37.764;2023-11-21T10:50:07;11.18;;;6.20;;
44197;SDS011;30157;55.512;37.764;2023-11-21T10:52:39;15.82;;;5.82;;
44197;SDS011;30157;55.512;37.764;2023-11-21T10:55:20;13.75;;;6.80;;
44197;SDS011;30157;55.512;37.764;2023-11-21T10:57:53;13.35;;;5.88;;
44197;SDS011;30157;55.512;37.764;2023-11-21T11:00:23;9.57;;;5.38;;
44197;SDS011;30157;55.512;37.764;2023-11-21T11:02:51;12.57;;;6.32;;
44197;SDS011;30157;55.512;37.764;2023-11-21T11:05:19;8.80;;;4.15;;
44197;SDS011;30157;55.512;37.764;2023-11-21T11:07:50;10.70;;;6.20;;
44197;SDS011;30157;55.512;37.764;2023-11-21T11:10:25;21.00;;;9.35;;
44197;SDS011;30157;55.512;37.764;2023-11-21T11:12:53;13.57;;;6.15;;
44197;SDS011;30157;55.512;37.764;2023-11-21T11:15:21;9.05;;;5.00;;
44197;SDS011;30157;55.512;37.764;2023-11-21T11:17:47;9.95;;;5.32;;
44197;SDS011;30157;55.512;37.764;2023-11-21T11:20:14;11.45;;;5.20;;
44197;SDS011;30157;55.512;37.764;2023-11-21T11:28:34;10.88;;;4.63;;
44197;SDS011;30157;55.512;37.764;2023-11-21T11:31:14;12.25;;;5.63;;
44197;SDS011;30157;55.512;37.764;2023-11-21T11:33:55;10.55;;;6.32;;
44197;SDS011;30157;55.512;37.764;2023-11-21T11:39:30;12.70;;;6.97;;
44197;SDS011;30157;55.512;37.764;2023-11-21T11:42:01;20.00;;;10.55;;
44197;SDS011;30157;55.512;37.764;2023-11-21T11:47:27;18.33;;;8.00;;
44197;SDS011;30157;55.512;37.764;2023-11-21T11:52:47;14.32;;;7.88;;
44197;SDS011;30157;55.512;37.764;2023-11-21T11:55:18;9.85;;;5.78;;
44197;SDS011;30157;55.512;37.764;2023-11-21T12:00:17;19.42;;;8.80;;
44197;SDS011;30157;55.512;37.764;2023-11-21T12:02:56;13.93;;;7.50;;
44197;SDS011;30157;55.512;37.764;2023-11-21T12:05:29;13.30;;;6.93;;
44197;SDS011;30157;55.512;37.764;2023-11-21T12:08:02;13.48;;;6.93;;
44197;SDS011;30157;55.512;37.764;2023-11-21T12:10:32;11.25;;;5.72;;
44197;SDS011;30157;55.512;37.764;2023-11-21T12:13:06;10.75;;;5.18;;
44197;SDS011;30157;55.512;37.764;2023-11-21T12:15:34;10.20;;;5.63;;
44197;SDS011;30157;55.512;37.764;2023-11-21T12:18:00;12.65;;;6.50;;
44197;SDS011;30157;55.512;37.764;2023-11-21T12:20:27;11.13;;;5.35;;
44197;SDS011;30157;55.512;37.764;2023-11-21T12:22:54;12.55;;;5.10;;
44197;SDS011;30157;55.512;37.764;2023-11-21T12:25:25;14.57;;;7.93;;
44197;SDS011;30157;55.512;37.764;2023-11-21T12:27:57;14.18;;;5.97;;
44197;SDS011;30157;55.512;37.764;2023-11-21T12:30:26;15.50;;;7.55;;
44197;SDS011;30157;55.512;37.764;2023-11-21T12:32:57;13.70;;;6.05;;
44197;SDS011;30157;55.512;37.764;2023-11-21T12:35:27;15.50;;;7.72;;
44197;SDS011;30157;55.512;37.764;2023-11-21T12:38:00;12.02;;;6.10;;
44197;SDS011;30157;55.512;37.764;2023-11-21T12:40:35;16.42;;;6.07;;
44197;SDS011;30157;55.512;37.764;2023-11-21T12:43:01;20.38;;;8.23;;
44197;SDS011;30157;55.512;37.764;2023-11-21T12:45:29;15.43;;;7.47;;
44197;SDS011;30157;55.512;37.764;2023-11-21T12:48:00;14.35;;;6.22;;
44197;SDS011;30157;55.512;37.764;2023-11-21T12:50:33;14.70;;;7.32;;
44197;SDS011;30157;55.512;37.764;2023-11-21T12:53:06;15.30;;;7.13;;
44197;SDS011;30157;55.512;37.764;2023-11-21T12:55:38;11.68;;;5.82;;
44197;SDS011;30157;55.512;37.764;2023-11-21T12:58:05;10.38;;;6.25;;
44197;SDS011;30157;55.512;37.764;2023-11-21T13:00:36;13.25;;;5.93;;
44197;SDS011;30157;55.512;37.764;2023-11-21T13:03:08;10.45;;;5.13;;
44197;SDS011;30157;55.512;37.764;2023-11-21T13:05:39;9.20;;;5.07;;
44197;SDS011;30157;55.512;37.764;2023-11-21T13:08:08;10.18;;;5.18;;
44197;SDS011;30157;55.512;37.764;2023-11-21T13:10:37;11.45;;;5.85;;
44197;SDS011;30157;55.512;37.764;2023-11-21T13:13:10;10.35;;;5.55;;
44197;SDS011;30157;55.512;37.764;2023-11-21T13:15:53;6.78;;;4.10;;
44197;SDS011;30157;55.512;37.764;2023-11-21T13:18:26;10.48;;;4.53;;
44197;SDS011;30157;55.512;37.764;2023-11-21T13:20:53;10.50;;;5.15;;
44197;SDS011;30157;55.512;37.764;2023-11-21T13:23:20;16.83;;;7.18;;
44197;SDS011;30157;55.512;37.764;2023-11-21T13:25:48;18.02;;;7.25;;
44197;SDS011;30157;55.512;37.764;2023-11-21T13:28:14;12.13;;;5.45;;
44197;SDS011;30157;55.512;37.764;2023-11-21T13:30:46;17.02;;;8.35;;
44197;SDS011;30157;55.512;37.764;2023-11-21T13:33:13;12.35;;;5.80;;
44197;SDS011;30157;55.512;37.764;2023-11-21T13:35:46;12.45;;;6.57;;
44197;SDS011;30157;55.512;37.764;2023-11-21T13:38:15;10.27;;;6.57;;
44197;SDS011;30157;55.512;37.764;2023-11-21T13:40:46;10.32;;;5.78;;
44197;SDS011;30157;55.512;37.764;2023-11-21T13:43:17;11.70;;;5.72;;
44197;SDS011;30157;55.512;37.764;2023-11-21T13:45:44;11.68;;;5.32;;
44197;SDS011;30157;55.512;37.764;2023-11-21T13:48:11;13.18;;;5.85;;
44197;SDS011;30157;55.512;37.764;2023-11-21T13:50:44;13.45;;;6.00;;
44197;SDS011;30157;55.512;37.764;2023-11-21T13:53:21;10.45;;;5.03;;
44197;SDS011;30157;55.512;37.764;2023-11-21T13:55:48;8.70;;;5.20;;
44197;SDS011;30157;55.512;37.764;2023-11-21T13:58:19;9.60;;;5.25;;
44197;SDS011;30157;55.512;37.764;2023-11-21T14:00:54;8.95;;;5.10;;
44197;SDS011;30157;55.512;37.764;2023-11-21T14:03:23;13.15;;;8.05;;
44197;SDS011;30157;55.512;37.764;2023-11-21T14:05:58;19.50;;;7.88;;
44197;SDS011;30157;55.512;37.764;2023-11-21T14:08:26;14.73;;;7.53;;
44197;SDS011;30157;55.512;37.764;2023-11-21T14:10:54;14.43;;;8.07;;
44197;SDS011;30157;55.512;37.764;2023-11-21T14:13:25;14.93;;;7.90;;
44197;SDS011;30157;55.512;37.764;2023-11-21T14:15:52;16.05;;;8.20;;
44197;SDS011;30157;55.512;37.764;2023-11-21T14:18:26;20.23;;;9.90;;
44197;SDS011;30157;55.512;37.764;2023-11-21T14:20:59;14.68;;;7.50;;
44197;SDS011;30157;55.512;37.764;2023-11-21T14:23:25;12.68;;;7.05;;
44197;SDS011;30157;55.512;37.764;2023-11-21T14:25:51;20.90;;;10.73;;
44197;SDS011;30157;55.512;37.764;2023-11-21T14:28:17;22.52;;;9.45;;
44197;SDS011;30157;55.512;37.764;2023-11-21T14:30:45;21.35;;;11.75;;
44197;SDS011;30157;55.512;37.764;2023-11-21T14:33:12;16.30;;;9.10;;
44197;SDS011;30157;55.512;37.764;2023-11-21T14:35:38;16.10;;;8.93;;
44197;SDS011;30157;55.512;37.764;2023-11-21T14:38:04;15.30;;;8.50;;
44197;SDS011;30157;55.512;37.764;2023-11-21T14:40:31;13.77;;;5.93;;
44197;SDS011;30157;55.512;37.764;2023-11-21T14:43:01;15.10;;;5.80;;
44197;SDS011;30157;55.512;37.764;2023-11-21T14:45:31;10.35;;;6.05;;
44197;SDS011;30157;55.512;37.764;2023-11-21T14:47:58;11.10;;;5.90;;